createdAt,value
2023-03-22T00:00:59.335Z,13.05
2023-03-22T00:03:37.881Z,13.26
2023-03-22T00:06:08.013Z,13.21
2023-03-22T00:08:36.690Z,13.29
2023-03-22T00:11:07.475Z,13.26
2023-03-22T00:13:37.588Z,13.34
2023-03-22T00:16:08.505Z,13.37
2023-03-22T00:18:39.077Z,13.35
2023-03-22T00:21:13.166Z,13.34
2023-03-22T00:23:51.658Z,13.41
2023-03-22T00:26:21.532Z,13.36
2023-03-22T00:29:03.867Z,13.19
2023-03-22T00:31:36.591Z,13.31
2023-03-22T00:34:12.173Z,13.23
2023-03-22T00:36:44.790Z,13.29
2023-03-22T00:39:16.460Z,13.31
2023-03-22T00:41:48.292Z,13.33
2023-03-22T00:44:25.697Z,13.30
2023-03-22T00:47:06.006Z,13.26
2023-03-22T00:49:39.942Z,13.30
2023-03-22T00:52:09.781Z,13.43
2023-03-22T00:54:41.146Z,13.36
2023-03-22T00:57:15.534Z,13.14
2023-03-22T00:59:46.055Z,13.18
2023-03-22T01:02:29.997Z,13.26
2023-03-22T01:05:12.511Z,13.18
2023-03-22T01:07:42.100Z,13.10
2023-03-22T01:13:00.410Z,13.03
2023-03-22T01:15:38.670Z,13.10
2023-03-22T01:18:15.074Z,13.12
2023-03-22T01:20:46.210Z,13.22
2023-03-22T01:23:19.860Z,13.10
2023-03-22T01:25:49.598Z,12.95
2023-03-22T01:28:23.760Z,13.20
2023-03-22T01:30:53.770Z,13.03
2023-03-22T01:33:23.708Z,13.07
2023-03-22T01:36:00.175Z,13.17
2023-03-22T01:38:41.650Z,13.14
2023-03-22T01:41:16.406Z,13.09
2023-03-22T01:43:52.218Z,13.14
2023-03-22T01:46:21.035Z,13.18
2023-03-22T01:48:57.885Z,13.04
2023-03-22T01:51:30.268Z,13.11
2023-03-22T01:54:26.064Z,13.16
2023-03-22T01:57:11.122Z,13.03
2023-03-22T02:00:14.570Z,12.76
2023-03-22T02:03:05.286Z,13.00
2023-03-22T02:05:58.365Z,13.09
2023-03-22T02:09:01.880Z,13.09
2023-03-22T02:12:04.146Z,13.05
2023-03-22T02:15:05.342Z,12.92
2023-03-22T02:18:21.457Z,13.18
2023-03-22T02:21:33.128Z,13.14
2023-03-22T02:24:46.452Z,13.21
2023-03-22T02:27:54.502Z,13.12
2023-03-22T02:31:07.456Z,13.24
2023-03-22T02:34:00.011Z,13.21
2023-03-22T02:36:58.968Z,13.18
2023-03-22T02:39:39.849Z,13.10
2023-03-22T02:42:25.913Z,13.16
2023-03-22T02:45:05.874Z,13.14
2023-03-22T02:47:43.554Z,12.97
2023-03-22T02:50:26.190Z,13.07
2023-03-22T02:52:58.477Z,13.03
2023-03-22T02:55:37.196Z,13.12
2023-03-22T02:58:09.948Z,13.16
2023-03-22T03:00:45.722Z,13.08
2023-03-22T03:03:22.559Z,13.19
2023-03-22T03:05:58.295Z,13.15
2023-03-22T03:08:34.105Z,13.12
2023-03-22T03:11:25.017Z,12.92
2023-03-22T03:14:03.888Z,12.80
2023-03-22T03:16:37.728Z,12.88
2023-03-22T03:19:15.352Z,12.86
2023-03-22T03:22:01.165Z,12.77
2023-03-22T03:24:51.186Z,12.73
2023-03-22T03:27:29.563Z,12.80
2023-03-22T03:30:13.286Z,12.93
2023-03-22T03:33:07.821Z,12.86
2023-03-22T03:35:43.080Z,12.89
2023-03-22T03:38:21.089Z,12.99
2023-03-22T03:40:53.670Z,12.89
2023-03-22T03:43:27.244Z,12.96
2023-03-22T03:45:57.095Z,12.93
2023-03-22T03:48:30.015Z,13.00
2023-03-22T03:51:05.403Z,12.86
2023-03-22T03:53:35.438Z,13.03
2023-03-22T03:56:06.798Z,13.15
2023-03-22T03:58:55.942Z,12.90
2023-03-22T04:01:26.762Z,13.04
2023-03-22T04:04:16.724Z,13.00
2023-03-22T04:06:58.752Z,13.16
2023-03-22T04:09:39.425Z,13.16
2023-03-22T04:12:21.898Z,13.14
2023-03-22T04:15:25.085Z,13.17
2023-03-22T04:17:58.987Z,13.11
2023-03-22T04:20:45.726Z,13.16
2023-03-22T04:23:20.090Z,13.14
2023-03-22T04:25:52.748Z,13.19
2023-03-22T04:28:39.850Z,13.09
2023-03-22T04:31:12.033Z,13.02
2023-03-22T04:33:55.588Z,13.02
2023-03-22T04:37:00.049Z,13.07
2023-03-22T04:39:35.233Z,13.13
2023-03-22T04:42:25.390Z,13.12
2023-03-22T04:45:15.256Z,13.21
2023-03-22T04:47:57.338Z,13.05
2023-03-22T04:50:34.752Z,13.04
2023-03-22T04:53:06.788Z,12.97
2023-03-22T04:55:36.406Z,13.07
2023-03-22T04:58:05.060Z,12.99
2023-03-22T05:00:41.846Z,13.09
2023-03-22T05:03:15.256Z,13.05
2023-03-22T05:05:55.299Z,13.10
2023-03-22T05:08:34.763Z,13.17
2023-03-22T05:11:08.908Z,13.20
2023-03-22T05:13:40.788Z,13.24
2023-03-22T05:16:11.442Z,13.19
2023-03-22T05:19:06.984Z,13.16
2023-03-22T05:21:41.872Z,13.13
2023-03-22T05:24:17.559Z,13.02
2023-03-22T05:26:54.095Z,13.08
2023-03-22T05:29:28.920Z,13.07
2023-03-22T05:32:16.513Z,13.08
2023-03-22T05:34:48.874Z,13.12
2023-03-22T05:37:41.085Z,13.14
2023-03-22T05:40:15.137Z,13.05
2023-03-22T05:42:46.620Z,13.14
2023-03-22T05:45:40.392Z,13.11
2023-03-22T05:48:21.581Z,13.09
2023-03-22T05:50:51.672Z,13.19
2023-03-22T05:53:22.798Z,13.29
2023-03-22T05:56:10.040Z,13.23
2023-03-22T05:58:42.896Z,13.34
2023-03-22T06:01:19.775Z,13.36
2023-03-22T06:03:52.003Z,13.36
2023-03-22T06:06:38.054Z,13.52
2023-03-22T06:09:31.721Z,13.53
2023-03-22T06:12:01.167Z,13.36
2023-03-22T06:14:33.859Z,13.53
2023-03-22T06:17:23.985Z,13.69
2023-03-22T06:19:59.917Z,13.68
2023-03-22T06:22:33.445Z,13.60
2023-03-22T06:25:08.416Z,13.45
2023-03-22T06:27:44.273Z,13.52
2023-03-22T06:30:19.537Z,13.42
2023-03-22T06:33:15.983Z,13.32
2023-03-22T06:35:58.915Z,13.38
2023-03-22T06:38:37.585Z,13.27
2023-03-22T06:41:07.431Z,13.35
2023-03-22T06:43:36.656Z,13.38
2023-03-22T06:46:19.953Z,13.39
2023-03-22T06:49:00.458Z,13.52
2023-03-22T06:51:36.463Z,13.40
2023-03-22T06:54:09.666Z,13.40
2023-03-22T06:56:41.604Z,13.57
2023-03-22T06:59:15.315Z,13.60
2023-03-22T07:01:52.962Z,13.65
2023-03-22T07:04:24.682Z,13.68
2023-03-22T07:06:55.497Z,13.75
2023-03-22T07:09:29.190Z,13.65
2023-03-22T07:12:05.114Z,13.75
2023-03-22T07:14:36.935Z,13.70
2023-03-22T07:17:23.589Z,13.89
2023-03-22T07:19:52.174Z,14.01
2023-03-22T07:22:22.536Z,14.03
2023-03-22T07:25:12.861Z,14.08
2023-03-22T07:27:45.304Z,13.91
2023-03-22T07:30:26.169Z,13.96
2023-03-22T07:32:56.492Z,14.01
2023-03-22T07:35:39.161Z,14.14
2023-03-22T07:38:09.742Z,14.21
2023-03-22T07:40:59.674Z,14.19
2023-03-22T07:43:54.007Z,14.33
2023-03-22T07:46:28.979Z,14.47
2023-03-22T07:49:21.439Z,14.58
2023-03-22T07:52:13.843Z,14.70
2023-03-22T07:54:43.641Z,14.75
2023-03-22T07:57:29.510Z,15.08
2023-03-22T08:00:13.752Z,15.21
2023-03-22T08:02:59.208Z,15.38
2023-03-22T08:05:59.064Z,15.50
2023-03-22T08:08:29.306Z,15.81
2023-03-22T08:10:59.878Z,15.67
2023-03-22T08:13:47.156Z,15.79
2023-03-22T08:16:20.213Z,15.80
2023-03-22T08:18:57.304Z,15.92
2023-03-22T08:21:30.759Z,15.90
2023-03-22T08:24:01.183Z,16.03
2023-03-22T08:26:58.663Z,16.13
2023-03-22T08:29:54.497Z,16.22
2023-03-22T08:32:26.044Z,16.22
2023-03-22T08:35:03.885Z,16.08
2023-03-22T08:37:34.654Z,16.17
2023-03-22T08:40:14.861Z,16.27
2023-03-22T08:43:08.823Z,16.54
2023-03-22T08:45:48.461Z,16.42
2023-03-22T08:48:21.143Z,16.63
2023-03-22T08:51:09.148Z,16.61
2023-03-22T08:53:59.108Z,16.51
2023-03-22T08:57:09.579Z,16.64
2023-03-22T08:59:58.928Z,16.48
2023-03-22T09:02:50.808Z,16.60
2023-03-22T09:05:20.647Z,16.57
2023-03-22T09:08:06.644Z,16.65
2023-03-22T09:10:58.207Z,16.76
2023-03-22T09:13:30.722Z,16.86
2023-03-22T09:16:04.797Z,17.09
2023-03-22T09:18:39.900Z,17.17
2023-03-22T09:21:26.612Z,17.24
2023-03-22T09:24:27.457Z,17.26
2023-03-22T09:26:59.443Z,17.44
2023-03-22T09:29:28.399Z,17.24
2023-03-22T09:31:57.843Z,17.33
2023-03-22T09:34:41.111Z,17.36
2023-03-22T09:37:15.652Z,17.29
2023-03-22T09:40:11.875Z,17.46
2023-03-22T09:42:46.627Z,17.63
2023-03-22T09:45:20.575Z,17.62
2023-03-22T09:47:54.941Z,17.83
2023-03-22T09:50:26.477Z,17.79
2023-03-22T09:52:58.164Z,17.81
2023-03-22T09:55:34.080Z,17.74
2023-03-22T09:58:10.581Z,17.66
2023-03-22T10:00:46.867Z,17.76
2023-03-22T10:03:23.277Z,17.88
2023-03-22T10:06:01.000Z,17.96
2023-03-22T10:08:49.768Z,18.16
2023-03-22T10:11:24.621Z,18.23
2023-03-22T10:14:09.160Z,18.31
2023-03-22T10:16:38.001Z,18.26
2023-03-22T10:19:16.933Z,18.36
2023-03-22T10:21:56.479Z,18.78
2023-03-22T10:24:29.636Z,18.82
2023-03-22T10:26:57.900Z,18.99
2023-03-22T10:29:32.566Z,18.91
2023-03-22T10:32:16.376Z,19.03
2023-03-22T10:34:46.743Z,19.07
2023-03-22T10:37:21.875Z,19.02
2023-03-22T10:39:55.894Z,19.15
2023-03-22T10:42:27.123Z,18.80
2023-03-22T10:45:02.319Z,18.86
2023-03-22T10:47:32.789Z,18.99
2023-03-22T10:50:04.570Z,19.17
2023-03-22T10:52:48.965Z,19.03
2023-03-22T10:55:21.090Z,18.95
2023-03-22T10:57:59.303Z,18.78
2023-03-22T11:00:29.107Z,18.71
2023-03-22T11:03:04.933Z,18.84
2023-03-22T11:05:34.488Z,18.80
2023-03-22T11:08:10.953Z,18.94
2023-03-22T11:10:42.694Z,18.90
2023-03-22T11:13:24.946Z,19.09
2023-03-22T11:16:02.646Z,19.39
2023-03-22T11:18:33.456Z,19.35
2023-03-22T11:21:18.583Z,18.99
2023-03-22T11:24:05.337Z,18.67
2023-03-22T11:26:39.049Z,18.76
2023-03-22T11:29:26.207Z,18.69
2023-03-22T11:31:58.537Z,18.58
2023-03-22T11:34:36.744Z,18.50
2023-03-22T11:37:09.267Z,18.36
2023-03-22T11:39:48.132Z,18.60
2023-03-22T11:42:21.107Z,19.00
2023-03-22T11:44:49.629Z,19.37
2023-03-22T11:47:21.365Z,19.66
2023-03-22T11:49:54.598Z,19.75
2023-03-22T11:52:29.176Z,20.15
2023-03-22T11:55:02.939Z,20.05
2023-03-22T11:57:42.836Z,20.09
2023-03-22T12:00:20.686Z,20.21
2023-03-22T12:02:54.922Z,20.36
2023-03-22T12:05:27.434Z,20.35
2023-03-22T12:08:03.042Z,20.39
2023-03-22T12:10:40.147Z,20.45
2023-03-22T12:13:20.973Z,20.47
2023-03-22T12:15:54.322Z,20.52
2023-03-22T12:18:29.567Z,20.67
2023-03-22T12:21:07.761Z,20.68
2023-03-22T12:23:36.818Z,20.84
2023-03-22T12:26:11.380Z,20.91
2023-03-22T12:28:46.454Z,21.01
2023-03-22T12:31:19.643Z,20.79
2023-03-22T12:33:50.928Z,20.83
2023-03-22T12:36:22.170Z,21.00
2023-03-22T12:38:54.341Z,21.11
2023-03-22T12:41:30.277Z,20.93
2023-03-22T12:44:02.584Z,20.73
2023-03-22T12:46:37.102Z,20.75
2023-03-22T12:49:20.064Z,20.93
2023-03-22T12:51:59.501Z,21.00
2023-03-22T12:54:31.493Z,21.09
2023-03-22T12:57:03.392Z,21.16
2023-03-22T12:59:46.966Z,21.26
2023-03-22T13:02:27.980Z,21.15
2023-03-22T13:05:10.005Z,21.27
2023-03-22T13:07:48.622Z,21.44
2023-03-22T13:10:54.627Z,21.47
2023-03-22T13:16:53.256Z,21.41
2023-03-22T13:19:37.145Z,21.56
2023-03-22T13:22:24.031Z,21.41
2023-03-22T13:25:24.152Z,21.48
2023-03-22T13:28:06.268Z,21.67
2023-03-22T13:30:49.435Z,21.70
2023-03-22T13:33:27.379Z,21.68
2023-03-22T13:35:59.807Z,21.51
2023-03-22T13:38:31.771Z,21.49
2023-03-22T13:41:03.586Z,20.98
2023-03-22T13:43:35.842Z,20.52
2023-03-22T13:46:15.972Z,20.58
2023-03-22T13:49:01.608Z,20.62
2023-03-22T13:51:43.714Z,20.70
2023-03-22T13:54:19.956Z,20.73
2023-03-22T13:57:02.447Z,20.67
2023-03-22T14:00:08.849Z,20.63
2023-03-22T14:02:44.380Z,20.52
2023-03-22T14:05:20.811Z,20.38
2023-03-22T14:07:59.553Z,20.18
2023-03-22T14:10:32.750Z,20.02
2023-03-22T14:13:07.080Z,19.98
2023-03-22T14:15:40.343Z,19.98
2023-03-22T14:18:25.915Z,19.91
2023-03-22T14:21:01.564Z,19.90
